sensor_id;sensor_type;location;lat;lon;timestamp;temperature;humidity
19003;DHT22;9634;51.040;13.794;2023-02-05T00:03:36;-1.70;99.90
19003;DHT22;9634;51.040;13.794;2023-02-05T00:08:39;-1.90;99.90
19003;DHT22;9634;51.040;13.794;2023-02-05T00:13:43;-2.10;99.90
19003;DHT22;9634;51.040;13.794;2023-02-05T00:18:46;-2.30;99.90
19003;DHT22;9634;51.040;13.794;2023-02-05T00:23:48;-2.50;99.90
19003;DHT22;9634;51.040;13.794;2023-02-05T00:28:52;-2.60;99.90
19003;DHT22;9634;51.040;13.794;2023-02-05T00:33:56;-2.60;99.90
19003;DHT22;9634;51.040;13.794;2023-02-05T00:38:59;-2.60;99.90
19003;DHT22;9634;51.040;13.794;2023-02-05T00:44:03;-2.80;99.90
19003;DHT22;9634;51.040;13.794;2023-02-05T00:49:05;-3.10;99.90
19003;DHT22;9634;51.040;13.794;2023-02-05T00:54:08;-3.20;99.90
19003;DHT22;9634;51.040;13.794;2023-02-05T00:59:11;-3.20;99.90
19003;DHT22;9634;51.040;13.794;2023-02-05T01:04:14;-3.30;99.90
19003;DHT22;9634;51.040;13.794;2023-02-05T01:09:16;-3.30;99.90
19003;DHT22;9634;51.040;13.794;2023-02-05T01:14:20;-3.50;99.90
19003;DHT22;9634;51.040;13.794;2023-02-05T01:19:22;-3.60;99.90
19003;DHT22;9634;51.040;13.794;2023-02-05T01:24:24;-3.60;99.90
19003;DHT22;9634;51.040;13.794;2023-02-05T01:29:28;-3.70;99.90
19003;DHT22;9634;51.040;13.794;2023-02-05T01:34:30;-3.60;99.90
19003;DHT22;9634;51.040;13.794;2023-02-05T01:39:32;-3.60;99.90
19003;DHT22;9634;51.040;13.794;2023-02-05T01:44:39;-3.80;99.90
19003;DHT22;9634;51.040;13.794;2023-02-05T01:49:42;-3.80;99.90
19003;DHT22;9634;51.040;13.794;2023-02-05T01:54:46;-3.90;99.90
19003;DHT22;9634;51.040;13.794;2023-02-05T01:59:54;-4.10;99.90
19003;DHT22;9634;51.040;13.794;2023-02-05T02:04:59;-4.10;99.90
19003;DHT22;9634;51.040;13.794;2023-02-05T02:10:02;-4.20;99.90
19003;DHT22;9634;51.040;13.794;2023-02-05T02:15:10;-4.10;99.90
19003;DHT22;9634;51.040;13.794;2023-02-05T02:20:15;-4.20;99.90
19003;DHT22;9634;51.040;13.794;2023-02-05T02:25:43;-4.20;99.90
19003;DHT22;9634;51.040;13.794;2023-02-05T02:30:57;-4.20;99.90
19003;DHT22;9634;51.040;13.794;2023-02-05T02:36:05;-4.30;99.90
19003;DHT22;9634;51.040;13.794;2023-02-05T02:41:13;-4.30;99.90
19003;DHT22;9634;51.040;13.794;2023-02-05T02:46:22;-4.30;99.90
19003;DHT22;9634;51.040;13.794;2023-02-05T02:51:26;-4.40;99.90
19003;DHT22;9634;51.040;13.794;2023-02-05T02:56:30;-4.40;99.90
19003;DHT22;9634;51.040;13.794;2023-02-05T03:01:37;-4.30;99.90
19003;DHT22;9634;51.040;13.794;2023-02-05T03:06:44;-4.30;99.90
19003;DHT22;9634;51.040;13.794;2023-02-05T03:11:48;-4.40;99.90
19003;DHT22;9634;51.040;13.794;2023-02-05T03:16:53;-4.50;99.90
19003;DHT22;9634;51.040;13.794;2023-02-05T03:21:59;-4.50;99.90
19003;DHT22;9634;51.040;13.794;2023-02-05T03:27:02;-4.50;99.90
19003;DHT22;9634;51.040;13.794;2023-02-05T03:32:13;-4.60;99.90
19003;DHT22;9634;51.040;13.794;2023-02-05T03:37:23;-4.60;99.90
19003;DHT22;9634;51.040;13.794;2023-02-05T03:42:35;-4.70;99.90
19003;DHT22;9634;51.040;13.794;2023-02-05T03:53:13;-4.60;99.90
19003;DHT22;9634;51.040;13.794;2023-02-05T03:58:22;-4.50;99.90
19003;DHT22;9634;51.040;13.794;2023-02-05T04:03:35;-4.60;99.90
19003;DHT22;9634;51.040;13.794;2023-02-05T04:08:37;-4.70;99.90
19003;DHT22;9634;51.040;13.794;2023-02-05T04:13:40;-4.80;99.90
19003;DHT22;9634;51.040;13.794;2023-02-05T04:18:46;-4.90;99.90
19003;DHT22;9634;51.040;13.794;2023-02-05T04:23:49;-4.90;99.90
19003;DHT22;9634;51.040;13.794;2023-02-05T04:28:52;-4.80;99.90
19003;DHT22;9634;51.040;13.794;2023-02-05T04:33:57;-4.80;99.90
19003;DHT22;9634;51.040;13.794;2023-02-05T04:38:59;-4.90;99.90
19003;DHT22;9634;51.040;13.794;2023-02-05T04:44:03;-4.90;99.90
19003;DHT22;9634;51.040;13.794;2023-02-05T04:49:07;-5.10;99.90
19003;DHT22;9634;51.040;13.794;2023-02-05T04:54:09;-5.00;99.90
19003;DHT22;9634;51.040;13.794;2023-02-05T04:59:11;-4.90;99.90
19003;DHT22;9634;51.040;13.794;2023-02-05T05:04:15;-5.00;99.90
19003;DHT22;9634;51.040;13.794;2023-02-05T05:09:17;-5.00;99.90
19003;DHT22;9634;51.040;13.794;2023-02-05T05:14:23;-4.90;99.90
19003;DHT22;9634;51.040;13.794;2023-02-05T05:19:27;-4.90;99.90
19003;DHT22;9634;51.040;13.794;2023-02-05T05:24:29;-4.80;99.90
19003;DHT22;9634;51.040;13.794;2023-02-05T05:29:31;-4.40;99.90
19003;DHT22;9634;51.040;13.794;2023-02-05T05:34:35;-4.20;99.90
19003;DHT22;9634;51.040;13.794;2023-02-05T05:39:37;-4.00;99.90
19003;DHT22;9634;51.040;13.794;2023-02-05T05:44:53;-3.90;99.90
19003;DHT22;9634;51.040;13.794;2023-02-05T05:49:57;-3.80;99.90
19003;DHT22;9634;51.040;13.794;2023-02-05T05:54:59;-3.80;99.90
19003;DHT22;9634;51.040;13.794;2023-02-05T06:00:02;-3.70;99.90
19003;DHT22;9634;51.040;13.794;2023-02-05T06:05:14;-3.70;99.90
19003;DHT22;9634;51.040;13.794;2023-02-05T06:10:16;-3.70;99.90
19003;DHT22;9634;51.040;13.794;2023-02-05T06:15:19;-3.80;99.90
19003;DHT22;9634;51.040;13.794;2023-02-05T06:20:23;-3.90;99.90
19003;DHT22;9634;51.040;13.794;2023-02-05T06:25:25;-3.90;99.90
19003;DHT22;9634;51.040;13.794;2023-02-05T06:30:27;-3.80;99.90
19003;DHT22;9634;51.040;13.794;2023-02-05T06:35:31;-3.80;99.90
19003;DHT22;9634;51.040;13.794;2023-02-05T06:40:33;-3.90;99.90
19003;DHT22;9634;51.040;13.794;2023-02-05T06:45:35;-4.10;99.90
19003;DHT22;9634;51.040;13.794;2023-02-05T06:50:39;-4.10;99.90
19003;DHT22;9634;51.040;13.794;2023-02-05T06:55:41;-4.30;99.90
19003;DHT22;9634;51.040;13.794;2023-02-05T07:00:43;-4.30;99.90
19003;DHT22;9634;51.040;13.794;2023-02-05T07:05:47;-4.20;99.90
19003;DHT22;9634;51.040;13.794;2023-02-05T07:10:49;-4.00;99.90
19003;DHT22;9634;51.040;13.794;2023-02-05T07:15:51;-3.90;99.90
19003;DHT22;9634;51.040;13.794;2023-02-05T07:20:55;-3.60;99.90
19003;DHT22;9634;51.040;13.794;2023-02-05T07:25:59;-3.30;99.90
19003;DHT22;9634;51.040;13.794;2023-02-05T07:31:08;-2.90;99.90
19003;DHT22;9634;51.040;13.794;2023-02-05T07:36:13;-2.30;99.90
19003;DHT22;9634;51.040;13.794;2023-02-05T07:41:17;-1.80;99.90
19003;DHT22;9634;51.040;13.794;2023-02-05T07:46:20;-0.50;99.90
19003;DHT22;9634;51.040;13.794;2023-02-05T07:51:24;0.30;99.90
19003;DHT22;9634;51.040;13.794;2023-02-05T07:56:26;1.00;99.90
19003;DHT22;9634;51.040;13.794;2023-02-05T08:01:28;0.80;99.90
19003;DHT22;9634;51.040;13.794;2023-02-05T08:06:33;0.30;99.90
19003;DHT22;9634;51.040;13.794;2023-02-05T08:11:35;0.50;99.90
19003;DHT22;9634;51.040;13.794;2023-02-05T08:16:37;0.50;99.90
19003;DHT22;9634;51.040;13.794;2023-02-05T08:21:41;0.40;99.90
19003;DHT22;9634;51.040;13.794;2023-02-05T08:26:44;0.60;99.90
19003;DHT22;9634;51.040;13.794;2023-02-05T08:31:46;0.70;99.90
19003;DHT22;9634;51.040;13.794;2023-02-05T08:36:50;0.60;99.90
19003;DHT22;9634;51.040;13.794;2023-02-05T08:41:52;1.10;99.90
19003;DHT22;9634;51.040;13.794;2023-02-05T08:46:54;1.50;99.90
19003;DHT22;9634;51.040;13.794;2023-02-05T08:51:58;2.00;99.90
19003;DHT22;9634;51.040;13.794;2023-02-05T08:57:00;2.30;99.90
19003;DHT22;9634;51.040;13.794;2023-02-05T09:02:03;2.40;99.90
19003;DHT22;9634;51.040;13.794;2023-02-05T09:07:07;2.20;99.90
19003;DHT22;9634;51.040;13.794;2023-02-05T09:12:09;1.90;99.90
19003;DHT22;9634;51.040;13.794;2023-02-05T09:17:11;1.70;99.90
19003;DHT22;9634;51.040;13.794;2023-02-05T09:22:15;1.60;99.90
19003;DHT22;9634;51.040;13.794;2023-02-05T09:27:18;1.40;99.90
19003;DHT22;9634;51.040;13.794;2023-02-05T09:32:20;1.20;99.90
19003;DHT22;9634;51.040;13.794;2023-02-05T09:37:24;1.30;99.90
19003;DHT22;9634;51.040;13.794;2023-02-05T09:42:32;1.50;99.90
19003;DHT22;9634;51.040;13.794;2023-02-05T09:47:40;2.00;99.90
19003;DHT22;9634;51.040;13.794;2023-02-05T09:52:46;2.50;99.90
19003;DHT22;9634;51.040;13.794;2023-02-05T09:57:52;2.80;99.90
19003;DHT22;9634;51.040;13.794;2023-02-05T10:03:00;3.50;97.10
19003;DHT22;9634;51.040;13.794;2023-02-05T10:08:12;4.50;90.50
19003;DHT22;9634;51.040;13.794;2023-02-05T10:13:33;5.30;75.90
19003;DHT22;9634;51.040;13.794;2023-02-05T10:18:43;5.70;63.50
19003;DHT22;9634;51.040;13.794;2023-02-05T10:24:04;6.20;58.80
19003;DHT22;9634;51.040;13.794;2023-02-05T10:29:16;6.10;57.60
19003;DHT22;9634;51.040;13.794;2023-02-05T10:34:34;6.40;56.50
19003;DHT22;9634;51.040;13.794;2023-02-05T10:39:39;6.00;55.20
19003;DHT22;9634;51.040;13.794;2023-02-05T10:44:44;6.40;54.70
19003;DHT22;9634;51.040;13.794;2023-02-05T10:49:50;6.50;54.50
19003;DHT22;9634;51.040;13.794;2023-02-05T10:54:55;6.70;51.30
19003;DHT22;9634;51.040;13.794;2023-02-05T11:00:00;6.50;50.90
19003;DHT22;9634;51.040;13.794;2023-02-05T11:05:06;6.90;50.50
19003;DHT22;9634;51.040;13.794;2023-02-05T11:10:17;7.10;47.70
19003;DHT22;9634;51.040;13.794;2023-02-05T11:15:23;7.60;46.00
19003;DHT22;9634;51.040;13.794;2023-02-05T11:20:30;8.70;43.40
19003;DHT22;9634;51.040;13.794;2023-02-05T11:25:35;9.90;40.40
19003;DHT22;9634;51.040;13.794;2023-02-05T11:30:37;10.90;35.00
19003;DHT22;9634;51.040;13.794;2023-02-05T11:35:40;10.90;31.10
19003;DHT22;9634;51.040;13.794;2023-02-05T11:40:53;10.30;29.80
19003;DHT22;9634;51.040;13.794;2023-02-05T11:45:58;9.10;33.40
19003;DHT22;9634;51.040;13.794;2023-02-05T11:51:01;8.50;36.00
19003;DHT22;9634;51.040;13.794;2023-02-05T11:56:08;8.80;34.80
19003;DHT22;9634;51.040;13.794;2023-02-05T12:01:20;9.30;33.80
19003;DHT22;9634;51.040;13.794;2023-02-05T12:06:26;9.80;31.60
19003;DHT22;9634;51.040;13.794;2023-02-05T12:11:45;10.10;29.40
19003;DHT22;9634;51.040;13.794;2023-02-05T12:17:17;10.30;28.40
19003;DHT22;9634;51.040;13.794;2023-02-05T12:22:35;12.00;26.90
19003;DHT22;9634;51.040;13.794;2023-02-05T12:28:01;11.90;24.10
19003;DHT22;9634;51.040;13.794;2023-02-05T12:33:27;11.80;26.60
19003;DHT22;9634;51.040;13.794;2023-02-05T12:38:46;12.70;23.30
19003;DHT22;9634;51.040;13.794;2023-02-05T12:43:55;13.10;22.40
19003;DHT22;9634;51.040;13.794;2023-02-05T12:49:12;12.70;21.50
19003;DHT22;9634;51.040;13.794;2023-02-05T12:54:28;11.50;19.50
19003;DHT22;9634;51.040;13.794;2023-02-05T12:59:39;9.20;23.10
19003;DHT22;9634;51.040;13.794;2023-02-05T13:04:45;8.30;26.10
19003;DHT22;9634;51.040;13.794;2023-02-05T13:09:53;7.80;27.80
19003;DHT22;9634;51.040;13.794;2023-02-05T13:15:04;7.10;26.90
19003;DHT22;9634;51.040;13.794;2023-02-05T13:20:17;6.60;27.60
19003;DHT22;9634;51.040;13.794;2023-02-05T13:25:24;6.40;28.30
19003;DHT22;9634;51.040;13.794;2023-02-05T13:30:52;6.70;28.90
19003;DHT22;9634;51.040;13.794;2023-02-05T13:36:04;7.00;27.80
19003;DHT22;9634;51.040;13.794;2023-02-05T13:41:30;7.20;28.00
19003;DHT22;9634;51.040;13.794;2023-02-05T13:46:53;7.90;29.30
19003;DHT22;9634;51.040;13.794;2023-02-05T13:52:27;8.50;27.50
19003;DHT22;9634;51.040;13.794;2023-02-05T13:58:08;8.80;27.20
19003;DHT22;9634;51.040;13.794;2023-02-05T14:03:29;8.90;27.50
19003;DHT22;9634;51.040;13.794;2023-02-05T14:08:36;10.00;26.00
19003;DHT22;9634;51.040;13.794;2023-02-05T14:13:40;11.10;23.00
19003;DHT22;9634;51.040;13.794;2023-02-05T14:18:49;11.60;23.60
19003;DHT22;9634;51.040;13.794;2023-02-05T14:23:55;11.70;21.50
19003;DHT22;9634;51.040;13.794;2023-02-05T14:28:58;11.80;22.30
19003;DHT22;9634;51.040;13.794;2023-02-05T14:34:42;11.80;20.40
19003;DHT22;9634;51.040;13.794;2023-02-05T14:39:45;11.40;20.40
19003;DHT22;9634;51.040;13.794;2023-02-05T14:44:53;11.30;20.60
19003;DHT22;9634;51.040;13.794;2023-02-05T14:50:04;11.90;20.80
19003;DHT22;9634;51.040;13.794;2023-02-05T14:55:18;11.00;19.80
19003;DHT22;9634;51.040;13.794;2023-02-05T15:00:27;9.50;21.80
19003;DHT22;9634;51.040;13.794;2023-02-05T15:05:35;7.90;23.90
19003;DHT22;9634;51.040;13.794;2023-02-05T15:10:45;7.20;25.70
19003;DHT22;9634;51.040;13.794;2023-02-05T15:16:16;6.50;26.90
19003;DHT22;9634;51.040;13.794;2023-02-05T15:21:26;5.90;28.50
19003;DHT22;9634;51.040;13.794;2023-02-05T15:26:38;5.30;30.30
19003;DHT22;9634;51.040;13.794;2023-02-05T15:31:45;4.80;31.40
19003;DHT22;9634;51.040;13.794;2023-02-05T15:36:53;4.20;33.20
19003;DHT22;9634;51.040;13.794;2023-02-05T15:41:58;3.90;35.50
19003;DHT22;9634;51.040;13.794;2023-02-05T15:47:04;3.50;36.90
19003;DHT22;9634;51.040;13.794;2023-02-05T15:52:15;3.20;38.70
19003;DHT22;9634;51.040;13.794;2023-02-05T15:57:20;2.80;41.00
19003;DHT22;9634;51.040;13.794;2023-02-05T16:02:25;2.40;43.40
19003;DHT22;9634;51.040;13.794;2023-02-05T16:07:35;2.10;47.00
19003;DHT22;9634;51.040;13.794;2023-02-05T16:12:37;1.50;51.40
19003;DHT22;9634;51.040;13.794;2023-02-05T16:17:42;1.10;1.00
19003;DHT22;9634;51.040;13.794;2023-02-05T16:22:51;1.00;89.60
19003;DHT22;9634;51.040;13.794;2023-02-05T16:27:56;0.80;99.90
19003;DHT22;9634;51.040;13.794;2023-02-05T16:33:01;0.50;1.00
19003;DHT22;9634;51.040;13.794;2023-02-05T16:38:13;0.30;1.00
19003;DHT22;9634;51.040;13.794;2023-02-05T16:43:19;0.00;99.90
19003;DHT22;9634;51.040;13.794;2023-02-05T16:48:31;-0.20;1.00
19003;DHT22;9634;51.040;13.794;2023-02-05T16:53:36;-0.40;1.00
19003;DHT22;9634;51.040;13.794;2023-02-05T16:58:44;-0.60;24.90
19003;DHT22;9634;51.040;13.794;2023-02-05T17:03:49;-0.60;99.90
19003;DHT22;9634;51.040;13.794;2023-02-05T17:08:54;-0.70;99.90
19003;DHT22;9634;51.040;13.794;2023-02-05T17:14:10;-0.80;99.90
19003;DHT22;9634;51.040;13.794;2023-02-05T17:19:24;-1.00;1.00
19003;DHT22;9634;51.040;13.794;2023-02-05T17:24:29;-1.10;99.90
19003;DHT22;9634;51.040;13.794;2023-02-05T17:29:32;-1.20;99.90
19003;DHT22;9634;51.040;13.794;2023-02-05T17:34:36;-1.10;99.90
19003;DHT22;9634;51.040;13.794;2023-02-05T17:39:39;-1.10;99.90
19003;DHT22;9634;51.040;13.794;2023-02-05T17:44:42;-1.10;99.90
19003;DHT22;9634;51.040;13.794;2023-02-05T17:49:44;-1.20;99.90
19003;DHT22;9634;51.040;13.794;2023-02-05T17:54:48;-1.30;99.90
19003;DHT22;9634;51.040;13.794;2023-02-05T17:59:51;-1.40;99.90
19003;DHT22;9634;51.040;13.794;2023-02-05T18:04:59;-1.40;99.90
19003;DHT22;9634;51.040;13.794;2023-02-05T18:10:03;-1.10;99.90
19003;DHT22;9634;51.040;13.794;2023-02-05T18:15:06;-1.10;99.90
19003;DHT22;9634;51.040;13.794;2023-02-05T18:20:10;-1.20;99.90
19003;DHT22;9634;51.040;13.794;2023-02-05T18:25:14;-1.30;99.90
19003;DHT22;9634;51.040;13.794;2023-02-05T18:30:17;-1.50;99.90
19003;DHT22;9634;51.040;13.794;2023-02-05T18:35:19;-1.80;99.90
19003;DHT22;9634;51.040;13.794;2023-02-05T18:40:25;-2.00;99.90
19003;DHT22;9634;51.040;13.794;2023-02-05T18:45:27;-2.10;1.00
19003;DHT22;9634;51.040;13.794;2023-02-05T18:50:30;-2.20;99.90
19003;DHT22;9634;51.040;13.794;2023-02-05T18:55:33;-2.10;99.90
19003;DHT22;9634;51.040;13.794;2023-02-05T19:00:36;-2.20;99.90
19003;DHT22;9634;51.040;13.794;2023-02-05T19:05:38;-2.10;99.90
19003;DHT22;9634;51.040;13.794;2023-02-05T19:10:42;-1.50;99.90
19003;DHT22;9634;51.040;13.794;2023-02-05T19:15:44;-1.50;99.90
19003;DHT22;9634;51.040;13.794;2023-02-05T19:20:46;-1.90;99.90
19003;DHT22;9634;51.040;13.794;2023-02-05T19:25:50;-2.00;99.90
19003;DHT22;9634;51.040;13.794;2023-02-05T19:30:53;-2.20;99.90
19003;DHT22;9634;51.040;13.794;2023-02-05T19:35:56;-2.40;99.90
19003;DHT22;9634;51.040;13.794;2023-02-05T19:41:06;-2.60;99.90
19003;DHT22;9634;51.040;13.794;2023-02-05T19:46:08;-2.50;99.90
19003;DHT22;9634;51.040;13.794;2023-02-05T19:51:12;-2.60;99.90
19003;DHT22;9634;51.040;13.794;2023-02-05T19:56:18;-2.80;99.90
19003;DHT22;9634;51.040;13.794;2023-02-05T20:01:22;-2.90;99.90
19003;DHT22;9634;51.040;13.794;2023-02-05T20:06:26;-3.00;99.90
19003;DHT22;9634;51.040;13.794;2023-02-05T20:11:30;-3.20;99.90
19003;DHT22;9634;51.040;13.794;2023-02-05T20:16:33;-3.30;99.90
19003;DHT22;9634;51.040;13.794;2023-02-05T20:21:36;-3.30;99.90
19003;DHT22;9634;51.040;13.794;2023-02-05T20:26:40;-3.40;99.90
19003;DHT22;9634;51.040;13.794;2023-02-05T20:31:44;-3.40;99.90
19003;DHT22;9634;51.040;13.794;2023-02-05T20:36:49;-3.50;99.90
19003;DHT22;9634;51.040;13.794;2023-02-05T20:41:54;-3.50;99.90
19003;DHT22;9634;51.040;13.794;2023-02-05T20:46:57;-3.50;99.90
19003;DHT22;9634;51.040;13.794;2023-02-05T20:52:00;-3.40;99.90
19003;DHT22;9634;51.040;13.794;2023-02-05T20:57:04;-3.00;99.90
19003;DHT22;9634;51.040;13.794;2023-02-05T21:02:09;-2.80;99.90
19003;DHT22;9634;51.040;13.794;2023-02-05T21:07:13;-3.30;99.90
19003;DHT22;9634;51.040;13.794;2023-02-05T21:12:17;-3.50;99.90
19003;DHT22;9634;51.040;13.794;2023-02-05T21:17:19;-3.60;99.90
19003;DHT22;9634;51.040;13.794;2023-02-05T21:22:21;-3.70;99.90
19003;DHT22;9634;51.040;13.794;2023-02-05T21:27:25;-3.90;99.90
19003;DHT22;9634;51.040;13.794;2023-02-05T21:32:28;-4.00;99.90
19003;DHT22;9634;51.040;13.794;2023-02-05T21:37:30;-4.00;99.90
19003;DHT22;9634;51.040;13.794;2023-02-05T21:42:34;-4.20;99.90
19003;DHT22;9634;51.040;13.794;2023-02-05T21:47:36;-4.20;99.90
19003;DHT22;9634;51.040;13.794;2023-02-05T21:52:38;-4.20;99.90
19003;DHT22;9634;51.040;13.794;2023-02-05T21:57:42;-4.30;99.90
19003;DHT22;9634;51.040;13.794;2023-02-05T22:02:44;-4.40;99.90
19003;DHT22;9634;51.040;13.794;2023-02-05T22:07:47;-4.30;99.90
19003;DHT22;9634;51.040;13.794;2023-02-05T22:12:51;-4.30;99.90
19003;DHT22;9634;51.040;13.794;2023-02-05T22:17:53;-4.30;99.90
19003;DHT22;9634;51.040;13.794;2023-02-05T22:22:55;-4.20;99.90
19003;DHT22;9634;51.040;13.794;2023-02-05T22:27:59;-4.30;99.90
19003;DHT22;9634;51.040;13.794;2023-02-05T22:33:01;-4.20;99.90
19003;DHT22;9634;51.040;13.794;2023-02-05T22:38:04;-4.40;99.90
19003;DHT22;9634;51.040;13.794;2023-02-05T22:43:07;-4.30;99.90
19003;DHT22;9634;51.040;13.794;2023-02-05T22:48:09;-4.30;99.90
19003;DHT22;9634;51.040;13.794;2023-02-05T22:53:12;-4.50;99.90
19003;DHT22;9634;51.040;13.794;2023-02-05T22:58:16;-4.50;99.90
19003;DHT22;9634;51.040;13.794;2023-02-05T23:03:19;-4.70;99.90
19003;DHT22;9634;51.040;13.794;2023-02-05T23:08:21;-4.90;99.90
19003;DHT22;9634;51.040;13.794;2023-02-05T23:13:25;-4.80;99.90
19003;DHT22;9634;51.040;13.794;2023-02-05T23:18:27;-4.90;99.90
19003;DHT22;9634;51.040;13.794;2023-02-05T23:23:29;-4.90;99.90
19003;DHT22;9634;51.040;13.794;2023-02-05T23:28:33;-5.00;99.90
19003;DHT22;9634;51.040;13.794;2023-02-05T23:33:36;-5.10;99.90
19003;DHT22;9634;51.040;13.794;2023-02-05T23:38:38;-5.10;99.90
19003;DHT22;9634;51.040;13.794;2023-02-05T23:43:42;-5.10;99.90
19003;DHT22;9634;51.040;13.794;2023-02-05T23:48:44;-5.00;99.90
19003;DHT22;9634;51.040;13.794;2023-02-05T23:53:46;-4.70;99.90
19003;DHT22;9634;51.040;13.794;2023-02-05T23:58:50;-4.80;99.90
